createdAt,value
2023-05-31T00:02:04.623Z,99178.22
2023-05-31T00:04:32.190Z,99172.22
2023-05-31T00:06:59.659Z,99171.81
2023-05-31T00:09:31.637Z,99178.13
2023-05-31T00:11:58.691Z,99169.84
2023-05-31T00:14:26.170Z,99170.78
2023-05-31T00:17:24.026Z,99170.38
2023-05-31T00:19:41.480Z,99172.47
2023-05-31T00:22:08.842Z,99162.97
2023-05-31T00:24:36.370Z,99165.50
2023-05-31T00:27:03.491Z,99168.06
2023-05-31T00:29:30.887Z,99162.31
2023-05-31T00:31:57.983Z,99167.78
2023-05-31T00:34:25.515Z,99165.94
2023-05-31T00:36:52.534Z,99164.75
2023-05-31T00:39:19.963Z,99163.44
2023-05-31T00:41:46.941Z,99168.72
2023-05-31T00:44:14.465Z,99173.28
2023-05-31T00:46:42.100Z,99174.03
2023-05-31T00:49:09.767Z,99170.66
2023-05-31T00:51:37.722Z,99175.09
2023-05-31T00:54:05.242Z,99180.38
2023-05-31T00:56:32.810Z,99182.28
2023-05-31T00:59:01.543Z,99184.50
2023-05-31T01:01:34.488Z,99186.41
2023-05-31T01:04:04.462Z,99186.91
2023-05-31T01:06:33.661Z,99194.03
2023-05-31T01:09:05.879Z,99188.84
2023-05-31T01:11:52.114Z,99195.25
2023-05-31T01:14:47.654Z,99184.66
2023-05-31T01:17:24.140Z,99191.19
2023-05-31T01:19:55.662Z,99187.22
2023-05-31T01:22:29.086Z,99190.97
2023-05-31T01:25:16.241Z,99187.78
2023-05-31T01:27:43.572Z,99189.56
2023-05-31T01:30:11.624Z,99195.44
2023-05-31T01:32:40.066Z,99189.19
2023-05-31T01:35:07.947Z,99192.41
2023-05-31T01:37:35.182Z,99197.81
2023-05-31T01:40:03.216Z,99193.44
2023-05-31T01:42:30.466Z,99194.16
2023-05-31T01:44:58.952Z,99190.78
2023-05-31T01:47:27.106Z,99193.09
2023-05-31T01:49:55.236Z,99197.44
2023-05-31T01:52:22.942Z,99196.91
2023-05-31T01:54:51.137Z,99194.81
2023-05-31T01:57:18.905Z,99203.25
2023-05-31T01:59:47.185Z,99200.19
2023-05-31T02:02:15.602Z,99192.91
2023-05-31T02:04:43.029Z,99193.97
2023-05-31T02:07:10.673Z,99189.06
2023-05-31T02:09:38.348Z,99186.41
2023-05-31T02:12:05.797Z,99198.34
2023-05-31T02:14:33.149Z,99187.75
2023-05-31T02:17:00.567Z,99189.94
2023-05-31T02:19:30.066Z,99194.66
2023-05-31T02:21:57.072Z,99189.91
2023-05-31T02:24:24.703Z,99190.75
2023-05-31T02:26:51.754Z,99192.69
2023-05-31T02:29:19.144Z,99197.59
2023-05-31T02:31:46.411Z,99195.13
2023-05-31T02:34:13.797Z,99189.81
2023-05-31T02:36:41.321Z,99192.50
2023-05-31T02:39:09.014Z,99195.72
2023-05-31T02:41:36.191Z,99191.03
2023-05-31T02:44:03.625Z,99191.31
2023-05-31T02:46:31.819Z,99197.88
2023-05-31T02:48:59.212Z,99195.09
2023-05-31T02:51:26.359Z,99198.91
2023-05-31T02:53:53.717Z,99198.66
2023-05-31T02:56:22.053Z,99201.00
2023-05-31T02:58:50.101Z,99208.50
2023-05-31T03:01:17.559Z,99206.94
2023-05-31T03:03:44.937Z,99210.53
2023-05-31T03:06:13.472Z,99204.09
2023-05-31T03:08:41.019Z,99203.44
2023-05-31T03:11:08.232Z,99200.06
2023-05-31T03:13:35.973Z,99213.09
2023-05-31T03:16:03.220Z,99214.56
2023-05-31T03:18:30.561Z,99206.09
2023-05-31T03:20:57.537Z,99205.25
2023-05-31T03:23:24.989Z,99214.72
2023-05-31T03:25:52.130Z,99210.25
2023-05-31T03:28:19.436Z,99217.03
2023-05-31T03:30:46.879Z,99217.31
2023-05-31T03:33:14.185Z,99215.19
2023-05-31T03:35:41.496Z,99217.16
2023-05-31T03:38:09.075Z,99227.03
2023-05-31T03:40:36.329Z,99220.94
2023-05-31T03:43:03.949Z,99215.09
2023-05-31T03:45:30.973Z,99216.66
2023-05-31T03:47:58.497Z,99218.41
2023-05-31T03:50:25.554Z,99211.31
2023-05-31T03:52:53.926Z,99213.03
2023-05-31T03:55:21.864Z,99208.72
2023-05-31T03:57:49.133Z,99208.38
2023-05-31T04:00:16.973Z,99208.44
2023-05-31T04:02:52.135Z,99215.81
2023-05-31T04:05:30.537Z,99214.19
2023-05-31T04:07:57.828Z,99213.56
2023-05-31T04:10:24.875Z,99214.97
2023-05-31T04:12:52.573Z,99212.66
2023-05-31T04:15:20.047Z,99205.63
2023-05-31T04:17:47.823Z,99203.03
2023-05-31T04:20:15.041Z,99209.97
2023-05-31T04:22:42.503Z,99208.06
2023-05-31T04:25:14.148Z,99206.00
2023-05-31T04:27:42.084Z,99200.25
2023-05-31T04:30:09.399Z,99197.53
2023-05-31T04:32:37.367Z,99200.09
2023-05-31T04:35:05.917Z,99195.72
2023-05-31T04:37:35.970Z,99191.53
2023-05-31T04:40:06.867Z,99196.53
2023-05-31T04:42:34.192Z,99193.53
2023-05-31T04:45:02.600Z,99200.47
2023-05-31T04:47:29.929Z,99197.28
2023-05-31T04:49:58.330Z,99193.63
2023-05-31T04:52:35.201Z,99199.31
2023-05-31T04:55:02.713Z,99206.66
2023-05-31T04:57:32.772Z,99202.75
2023-05-31T05:00:00.409Z,99196.19
2023-05-31T05:02:28.520Z,99199.00
2023-05-31T05:04:55.721Z,99202.38
2023-05-31T05:07:23.059Z,99206.63
2023-05-31T05:09:50.194Z,99211.66
2023-05-31T05:12:17.532Z,99215.63
2023-05-31T05:14:45.138Z,99214.84
2023-05-31T05:17:12.520Z,99219.41
2023-05-31T05:19:39.936Z,99217.75
2023-05-31T05:22:08.656Z,99221.47
2023-05-31T05:24:35.884Z,99224.66
2023-05-31T05:27:03.756Z,99224.81
2023-05-31T05:29:30.859Z,99229.75
2023-05-31T05:31:58.295Z,99235.88
2023-05-31T05:34:25.855Z,99236.69
2023-05-31T05:36:54.072Z,99233.91
2023-05-31T05:39:21.383Z,99236.59
2023-05-31T05:41:49.140Z,99241.22
2023-05-31T05:44:16.767Z,99243.03
2023-05-31T05:46:44.703Z,99234.94
2023-05-31T05:49:12.812Z,99242.59
2023-05-31T05:51:40.775Z,99238.41
2023-05-31T05:54:08.905Z,99248.34
2023-05-31T05:56:36.682Z,99249.16
2023-05-31T05:59:05.407Z,99250.16
2023-05-31T06:01:35.453Z,99246.81
2023-05-31T06:04:03.578Z,99249.34
2023-05-31T06:06:33.402Z,99249.84
2023-05-31T06:09:00.599Z,99249.31
2023-05-31T06:11:28.118Z,99243.47
2023-05-31T06:13:58.912Z,99249.88
2023-05-31T06:16:27.453Z,99246.50
2023-05-31T06:18:54.647Z,99246.97
2023-05-31T06:21:22.488Z,99238.78
2023-05-31T06:23:49.609Z,99242.88
2023-05-31T06:26:17.061Z,99231.84
2023-05-31T06:28:44.414Z,99235.81
2023-05-31T06:31:12.025Z,99229.97
2023-05-31T06:33:41.776Z,99239.56
2023-05-31T06:36:09.678Z,99229.59
2023-05-31T06:38:37.215Z,99235.81
2023-05-31T06:41:06.706Z,99224.06
2023-05-31T06:43:33.877Z,99229.84
2023-05-31T06:46:01.376Z,99228.81
2023-05-31T06:48:28.595Z,99239.28
2023-05-31T06:50:56.841Z,99228.84
2023-05-31T06:53:24.992Z,99232.84
2023-05-31T06:55:52.710Z,99228.88
2023-05-31T06:58:19.942Z,99231.47
2023-05-31T07:00:48.004Z,99226.50
2023-05-31T07:03:15.283Z,99228.75
2023-05-31T07:05:45.605Z,99234.63
2023-05-31T07:08:16.005Z,99222.78
2023-05-31T07:10:45.760Z,99228.28
2023-05-31T07:13:12.939Z,99224.25
2023-05-31T07:15:40.499Z,99228.38
2023-05-31T07:18:08.001Z,99227.69
2023-05-31T07:20:35.533Z,99230.28
2023-05-31T07:23:02.861Z,99225.63
2023-05-31T07:25:30.421Z,99225.38
2023-05-31T07:27:57.787Z,99223.34
2023-05-31T07:30:26.790Z,99217.41
2023-05-31T07:32:53.991Z,99221.94
2023-05-31T07:35:22.042Z,99222.41
2023-05-31T07:37:49.501Z,99225.91
2023-05-31T07:40:18.342Z,99225.16
2023-05-31T07:42:45.691Z,99219.19
2023-05-31T07:45:13.750Z,99209.91
2023-05-31T07:47:41.008Z,99208.56
2023-05-31T07:50:09.466Z,99214.94
2023-05-31T07:52:36.852Z,99208.66
2023-05-31T07:55:05.354Z,99213.78
2023-05-31T07:57:33.923Z,99209.84
2023-05-31T08:00:01.505Z,99203.50
2023-05-31T08:02:28.632Z,99204.13
2023-05-31T08:05:01.274Z,99202.50
2023-05-31T08:07:28.794Z,99201.81
2023-05-31T08:09:56.134Z,99204.13
2023-05-31T08:12:26.761Z,99203.25
2023-05-31T08:14:55.823Z,99197.16
2023-05-31T08:17:23.090Z,99202.84
2023-05-31T08:19:50.528Z,99199.16
2023-05-31T08:22:18.036Z,99202.81
2023-05-31T08:24:45.381Z,99200.50
2023-05-31T08:27:13.780Z,99209.09
2023-05-31T08:29:41.253Z,99206.31
2023-05-31T08:32:08.326Z,99192.78
2023-05-31T08:34:35.906Z,99203.00
2023-05-31T08:37:04.015Z,99198.69
2023-05-31T08:39:32.330Z,99201.31
2023-05-31T08:42:09.056Z,99201.78
2023-05-31T08:44:37.256Z,99200.03
2023-05-31T08:47:14.546Z,99198.41
2023-05-31T08:49:43.512Z,99195.34
2023-05-31T08:52:10.499Z,99193.34
2023-05-31T08:54:38.718Z,99202.81
2023-05-31T08:57:07.048Z,99205.13
2023-05-31T08:59:35.472Z,99195.59
2023-05-31T09:02:03.017Z,99194.28
2023-05-31T09:04:30.625Z,99200.94
2023-05-31T09:06:58.057Z,99205.66
2023-05-31T09:09:26.542Z,99215.00
2023-05-31T09:11:54.109Z,99199.16
2023-05-31T09:14:21.581Z,99201.50
2023-05-31T09:16:51.713Z,99204.25
2023-05-31T09:19:19.312Z,99207.16
2023-05-31T09:21:46.728Z,99201.59
2023-05-31T09:24:16.103Z,99205.22
2023-05-31T09:26:54.070Z,99211.03
2023-05-31T09:29:23.672Z,99202.81
2023-05-31T09:32:08.423Z,99202.56
2023-05-31T09:34:36.326Z,99200.53
2023-05-31T09:37:05.106Z,99203.25
2023-05-31T09:39:33.168Z,99211.50
2023-05-31T09:42:00.990Z,99203.50
2023-05-31T09:44:31.672Z,99188.69
2023-05-31T09:47:08.758Z,99196.09
2023-05-31T09:49:36.104Z,99180.19
2023-05-31T09:52:03.909Z,99186.03
2023-05-31T09:54:31.624Z,99189.22
2023-05-31T09:56:58.596Z,99175.59
2023-05-31T09:59:26.324Z,99173.22
2023-05-31T10:01:55.315Z,99172.78
2023-05-31T10:04:23.566Z,99171.09
2023-05-31T10:06:51.491Z,99173.09
2023-05-31T10:09:19.877Z,99170.19
2023-05-31T10:11:51.839Z,99168.09
2023-05-31T10:14:31.712Z,99159.28
2023-05-31T10:17:00.517Z,99162.50
2023-05-31T10:22:02.327Z,99147.22
2023-05-31T10:24:46.785Z,99155.84
2023-05-31T10:27:21.037Z,99148.84
2023-05-31T10:29:53.943Z,99149.31
2023-05-31T10:32:21.860Z,99146.47
2023-05-31T10:34:49.861Z,99136.88
2023-05-31T10:37:17.528Z,99135.66
2023-05-31T10:40:06.760Z,99134.69
2023-05-31T10:42:59.935Z,99142.41
2023-05-31T10:45:31.859Z,99135.47
2023-05-31T10:48:24.310Z,99129.75
2023-05-31T10:51:03.079Z,99139.22
2023-05-31T10:53:31.430Z,99136.31
2023-05-31T10:56:15.298Z,99130.94
2023-05-31T10:58:53.297Z,99132.56
2023-05-31T11:01:26.002Z,99122.63
2023-05-31T11:03:54.674Z,99133.97
2023-05-31T11:06:32.150Z,99122.41
2023-05-31T11:09:00.665Z,99120.16
2023-05-31T11:11:48.972Z,99112.94
2023-05-31T11:14:30.800Z,99120.81
2023-05-31T11:17:14.303Z,99109.88
2023-05-31T11:19:43.504Z,99104.09
2023-05-31T11:22:14.954Z,99104.50
2023-05-31T11:24:54.442Z,99099.47
2023-05-31T11:27:41.204Z,99092.16
2023-05-31T11:30:14.600Z,99096.59
2023-05-31T11:32:41.881Z,99092.31
2023-05-31T11:35:12.457Z,99088.53
2023-05-31T11:37:41.607Z,99084.28
2023-05-31T11:40:14.306Z,99083.16
2023-05-31T11:42:44.830Z,99085.78
2023-05-31T11:45:11.979Z,99080.41
2023-05-31T11:47:45.798Z,99079.41
2023-05-31T11:50:14.901Z,99086.50
2023-05-31T11:52:42.442Z,99085.03
2023-05-31T11:55:12.853Z,99080.78
2023-05-31T11:57:42.979Z,99079.94
2023-05-31T12:00:13.454Z,99085.56
2023-05-31T12:02:41.616Z,99081.63
2023-05-31T12:05:16.800Z,99082.91
2023-05-31T12:07:45.723Z,99073.31
2023-05-31T12:10:13.569Z,99073.88
2023-05-31T12:12:41.977Z,99074.69
2023-05-31T12:15:13.518Z,99069.06
2023-05-31T12:17:41.523Z,99062.56
2023-05-31T12:20:09.416Z,99060.56
2023-05-31T12:22:37.571Z,99053.97
2023-05-31T12:25:04.973Z,99058.53
2023-05-31T12:27:44.583Z,99046.84
2023-05-31T12:30:19.569Z,99050.34
2023-05-31T12:32:48.354Z,99054.88
2023-05-31T12:35:16.420Z,99045.53
2023-05-31T12:37:43.760Z,99038.97
2023-05-31T12:40:12.959Z,99045.47
2023-05-31T12:42:40.830Z,99041.53
2023-05-31T12:45:08.697Z,99041.97
2023-05-31T12:47:37.064Z,99042.13
2023-05-31T12:50:06.670Z,99034.72
2023-05-31T12:52:35.176Z,99029.09
2023-05-31T12:55:05.893Z,99030.13
2023-05-31T12:57:36.224Z,99031.13
2023-05-31T13:00:13.079Z,99022.56
2023-05-31T13:02:41.514Z,99023.16
2023-05-31T13:05:09.398Z,99031.00
2023-05-31T13:07:37.687Z,99027.72
2023-05-31T13:10:09.564Z,99021.94
2023-05-31T13:12:39.848Z,99025.47
2023-05-31T13:15:08.143Z,99022.88
2023-05-31T13:17:35.836Z,99016.59
2023-05-31T13:22:33.745Z,99007.44
2023-05-31T13:25:01.076Z,99000.50
2023-05-31T13:27:28.789Z,99004.34
2023-05-31T13:29:56.778Z,99010.72
2023-05-31T13:32:24.436Z,99011.19
2023-05-31T13:34:53.970Z,99002.63
2023-05-31T13:37:23.118Z,98996.53
2023-05-31T13:39:50.423Z,98991.09
2023-05-31T13:42:18.198Z,98986.00
2023-05-31T13:44:45.305Z,98984.72
2023-05-31T13:47:14.765Z,98989.50
2023-05-31T13:49:42.130Z,98985.69
2023-05-31T13:52:11.538Z,98980.03
2023-05-31T13:54:39.329Z,98984.06
2023-05-31T13:57:07.152Z,98986.09
2023-05-31T13:59:34.990Z,98973.38
2023-05-31T14:02:02.591Z,98981.28
2023-05-31T14:04:29.898Z,98965.69
2023-05-31T14:06:57.245Z,98960.50
2023-05-31T14:09:24.725Z,98954.72
2023-05-31T14:11:53.104Z,98961.81
2023-05-31T14:14:20.764Z,98961.63
2023-05-31T14:16:48.669Z,98957.81
2023-05-31T14:19:16.179Z,98949.75
2023-05-31T14:21:43.904Z,98955.53
2023-05-31T14:24:11.790Z,98953.31
2023-05-31T14:26:40.046Z,98952.03
2023-05-31T14:29:07.244Z,98944.16
2023-05-31T14:31:35.160Z,98954.66
2023-05-31T14:34:02.376Z,98948.34
2023-05-31T14:36:30.212Z,98948.53
2023-05-31T14:38:57.636Z,98953.53
2023-05-31T14:41:27.492Z,98942.53
2023-05-31T14:43:54.586Z,98941.44
2023-05-31T14:46:22.145Z,98945.09
2023-05-31T14:48:49.834Z,98936.50
2023-05-31T14:51:17.258Z,98935.47
2023-05-31T14:53:44.309Z,98934.78
2023-05-31T14:58:44.143Z,98935.19
2023-05-31T15:01:11.524Z,98929.00
2023-05-31T15:03:38.855Z,98931.91
2023-05-31T15:06:06.562Z,98934.44
2023-05-31T15:08:35.235Z,98924.50
2023-05-31T15:11:03.256Z,98931.03
2023-05-31T15:13:30.923Z,98930.00
2023-05-31T15:16:00.147Z,98920.88
2023-05-31T15:18:28.491Z,98926.09
2023-05-31T15:20:56.148Z,98916.47
2023-05-31T15:23:23.475Z,98919.34
2023-05-31T15:25:50.999Z,98909.41
2023-05-31T15:28:18.286Z,98908.16
2023-05-31T15:30:46.137Z,98907.31
2023-05-31T15:33:13.575Z,98916.31
2023-05-31T15:35:41.307Z,98898.41
2023-05-31T15:38:08.404Z,98897.50
2023-05-31T15:40:36.265Z,98890.91
2023-05-31T15:43:03.675Z,98888.25
2023-05-31T15:45:31.210Z,98899.81
2023-05-31T15:47:58.849Z,98894.22
2023-05-31T15:50:26.357Z,98893.34
2023-05-31T15:52:53.501Z,98879.22
2023-05-31T15:55:21.826Z,98873.28
2023-05-31T15:57:48.897Z,98870.84
2023-05-31T16:00:17.883Z,98876.25
2023-05-31T16:02:45.534Z,98873.59
2023-05-31T16:05:13.848Z,98870.09
2023-05-31T16:07:41.356Z,98871.66
2023-05-31T16:10:09.380Z,98864.22
2023-05-31T16:12:36.526Z,98866.69
2023-05-31T16:15:04.684Z,98865.50
2023-05-31T16:17:31.950Z,98859.69
2023-05-31T16:19:59.595Z,98858.72
2023-05-31T16:22:26.894Z,98857.88
2023-05-31T16:24:54.439Z,98856.22
2023-05-31T16:27:21.490Z,98847.78
2023-05-31T16:29:49.046Z,98851.28
2023-05-31T16:32:16.367Z,98857.50
2023-05-31T16:34:43.928Z,98846.34
2023-05-31T16:37:10.999Z,98854.50
2023-05-31T16:39:38.619Z,98846.16
2023-05-31T16:42:07.919Z,98846.84
2023-05-31T16:44:36.287Z,98854.03
2023-05-31T16:47:03.892Z,98846.09
2023-05-31T16:49:31.314Z,98850.94
2023-05-31T16:51:58.356Z,98847.00
2023-05-31T16:54:26.244Z,98842.25
2023-05-31T16:56:53.300Z,98847.97
2023-05-31T16:59:20.679Z,98847.00
2023-05-31T17:01:47.820Z,98839.47
2023-05-31T17:04:15.180Z,98841.75
2023-05-31T17:06:42.476Z,98837.00
2023-05-31T17:09:10.460Z,98831.34
2023-05-31T17:11:39.424Z,98834.94
2023-05-31T17:14:06.738Z,98836.81
2023-05-31T17:16:34.491Z,98836.72
2023-05-31T17:19:01.837Z,98832.47
2023-05-31T17:21:30.381Z,98830.38
2023-05-31T17:23:57.874Z,98829.97
2023-05-31T17:26:24.896Z,98828.84
2023-05-31T17:28:52.185Z,98824.84
2023-05-31T17:31:19.660Z,98826.34
2023-05-31T17:33:47.135Z,98824.97
2023-05-31T17:36:14.366Z,98827.25
2023-05-31T17:38:42.358Z,98820.38
2023-05-31T17:41:10.401Z,98824.38
2023-05-31T17:43:38.993Z,98823.25
2023-05-31T17:46:06.565Z,98824.09
2023-05-31T17:48:33.939Z,98830.63
2023-05-31T17:51:01.386Z,98832.03
2023-05-31T17:53:29.894Z,98833.22
2023-05-31T17:55:57.464Z,98830.63
2023-05-31T17:58:28.482Z,98830.13
2023-05-31T18:00:55.995Z,98826.38
2023-05-31T18:03:27.202Z,98834.53
2023-05-31T18:05:57.645Z,98832.25
2023-05-31T18:08:26.782Z,98822.75
2023-05-31T18:10:53.957Z,98827.81
2023-05-31T18:13:21.505Z,98823.91
2023-05-31T18:15:48.838Z,98826.06
2023-05-31T18:18:18.608Z,98831.34
2023-05-31T18:20:46.564Z,98829.28
2023-05-31T18:23:14.032Z,98820.03
2023-05-31T18:25:41.363Z,98830.03
2023-05-31T18:28:09.341Z,98815.25
2023-05-31T18:30:36.617Z,98822.84
2023-05-31T18:33:04.546Z,98824.06
2023-05-31T18:35:32.019Z,98825.97
2023-05-31T18:37:59.666Z,98827.13
2023-05-31T18:40:27.998Z,98827.97
2023-05-31T18:42:55.566Z,98824.94
2023-05-31T18:45:25.061Z,98822.44
2023-05-31T18:47:53.980Z,98826.09
2023-05-31T18:50:21.433Z,98828.63
2023-05-31T18:52:49.551Z,98832.56
2023-05-31T18:55:16.936Z,98838.50
2023-05-31T18:57:45.447Z,98843.38
2023-05-31T19:00:13.718Z,98837.31
2023-05-31T19:02:42.167Z,98843.19
2023-05-31T19:05:10.791Z,98848.78
2023-05-31T19:07:39.164Z,98847.19
2023-05-31T19:10:07.353Z,98843.63
2023-05-31T19:12:35.660Z,98848.69
2023-05-31T19:15:03.680Z,98844.97
2023-05-31T19:17:32.888Z,98844.19
2023-05-31T19:20:00.223Z,98838.69
2023-05-31T19:22:42.596Z,98848.91
2023-05-31T19:25:09.807Z,98844.66
2023-05-31T19:27:37.587Z,98843.91
2023-05-31T19:30:04.993Z,98852.31
2023-05-31T19:32:32.698Z,98842.22
2023-05-31T19:35:00.308Z,98849.13
2023-05-31T19:37:27.899Z,98846.72
2023-05-31T19:39:55.022Z,98852.16
2023-05-31T19:42:23.148Z,98858.72
2023-05-31T19:44:50.561Z,98848.78
2023-05-31T19:47:18.069Z,98858.13
2023-05-31T19:49:46.229Z,98856.41
2023-05-31T19:52:14.967Z,98850.28
2023-05-31T19:54:42.780Z,98851.44
2023-05-31T19:57:10.814Z,98846.16
2023-05-31T19:59:38.097Z,98846.47
2023-05-31T20:02:06.242Z,98844.31
2023-05-31T20:04:34.432Z,98842.19
2023-05-31T20:07:02.881Z,98842.34
2023-05-31T20:09:30.949Z,98838.72
2023-05-31T20:11:59.663Z,98843.38
2023-05-31T20:14:27.674Z,98847.50
2023-05-31T20:16:55.300Z,98843.66
2023-05-31T20:19:23.665Z,98844.47
2023-05-31T20:21:52.655Z,98840.16
2023-05-31T20:24:21.787Z,98850.88
2023-05-31T20:26:49.864Z,98848.53
2023-05-31T20:29:17.654Z,98844.34
2023-05-31T20:31:45.226Z,98847.41
2023-05-31T20:34:12.565Z,98847.25
2023-05-31T20:36:42.495Z,98839.78
2023-05-31T20:39:10.217Z,98833.41
2023-05-31T20:41:37.712Z,98845.91
2023-05-31T20:44:06.481Z,98837.53
2023-05-31T20:46:34.217Z,98838.94
2023-05-31T20:49:01.650Z,98841.91
2023-05-31T20:51:29.121Z,98843.13
2023-05-31T20:53:56.649Z,98842.16
2023-05-31T20:56:24.880Z,98842.00
2023-05-31T20:58:52.461Z,98842.84
2023-05-31T21:01:20.329Z,98841.03
2023-05-31T21:03:47.712Z,98843.09
2023-05-31T21:06:16.240Z,98837.47
2023-05-31T21:08:43.322Z,98842.22
2023-05-31T21:11:11.107Z,98835.03
2023-05-31T21:13:38.218Z,98838.78
2023-05-31T21:16:05.864Z,98846.09
2023-05-31T21:18:32.928Z,98845.78
2023-05-31T21:21:01.299Z,98853.97
2023-05-31T21:23:28.544Z,98850.53
2023-05-31T21:25:56.432Z,98851.59
2023-05-31T21:28:23.533Z,98844.63
2023-05-31T21:30:51.320Z,98846.53
2023-05-31T21:33:18.928Z,98849.00
2023-05-31T21:35:47.188Z,98849.81
2023-05-31T21:38:14.444Z,98851.88
2023-05-31T21:40:42.390Z,98846.97
2023-05-31T21:43:09.412Z,98851.66
2023-05-31T21:45:36.833Z,98858.31
2023-05-31T21:48:03.885Z,98857.50
2023-05-31T21:50:31.814Z,98851.38
2023-05-31T21:52:58.749Z,98847.91
2023-05-31T21:55:26.214Z,98855.22
2023-05-31T21:57:53.293Z,98850.28
2023-05-31T22:00:21.232Z,98850.16
2023-05-31T22:02:48.363Z,98856.78
2023-05-31T22:05:16.153Z,98850.84
2023-05-31T22:07:43.242Z,98858.50
2023-05-31T22:10:11.022Z,98861.31
2023-05-31T22:12:38.206Z,98862.69
2023-05-31T22:15:07.322Z,98861.81
2023-05-31T22:17:35.230Z,98861.41
2023-05-31T22:20:03.803Z,98862.13
2023-05-31T22:22:31.562Z,98863.09
2023-05-31T22:25:09.394Z,98864.00
2023-05-31T22:27:41.240Z,98869.84
2023-05-31T22:30:09.143Z,98855.69
2023-05-31T22:32:36.724Z,98865.00
2023-05-31T22:35:04.743Z,98854.44
2023-05-31T22:37:32.665Z,98856.59
2023-05-31T22:40:00.260Z,98852.25
2023-05-31T22:42:27.618Z,98852.31
2023-05-31T22:44:57.627Z,98861.00
2023-05-31T22:47:25.756Z,98856.81
2023-05-31T22:49:54.804Z,98856.22
2023-05-31T22:52:23.632Z,98853.59
2023-05-31T22:54:51.082Z,98856.81
2023-05-31T22:57:18.633Z,98856.22
2023-05-31T22:59:45.751Z,98856.09
2023-05-31T23:02:13.169Z,98861.75
2023-05-31T23:04:40.308Z,98860.72
2023-05-31T23:07:07.588Z,98861.84
2023-05-31T23:09:35.176Z,98869.03
2023-05-31T23:12:04.039Z,98859.41
2023-05-31T23:14:31.174Z,98857.41
2023-05-31T23:17:02.948Z,98856.91
2023-05-31T23:19:30.066Z,98857.53
2023-05-31T23:21:57.541Z,98856.22
2023-05-31T23:24:24.478Z,98857.00
2023-05-31T23:26:52.156Z,98851.84
2023-05-31T23:29:19.243Z,98858.91
2023-05-31T23:31:46.743Z,98846.22
2023-05-31T23:34:15.479Z,98838.22
2023-05-31T23:36:42.867Z,98841.00
2023-05-31T23:39:11.647Z,98840.41
2023-05-31T23:41:42.574Z,98838.47
2023-05-31T23:44:09.553Z,98836.03
2023-05-31T23:46:36.904Z,98839.06
2023-05-31T23:49:04.222Z,98835.59
2023-05-31T23:51:31.631Z,98829.38
2023-05-31T23:53:58.779Z,98832.50
2023-05-31T23:56:27.239Z,98831.94
2023-05-31T23:58:54.200Z,98835.63
